Naylamp I — HO9450 — position and weather

sailwx.info

Track history (hours):
 
Tides and Currents Weather Stations Pressure Air Temp Water Temp Dewpoint Dewpoint Depression Visibility Wind Speed Wind Dir Waves Ship Positions

Naylamp I

Last reported at 2017-Nov-19 13:45 UTC. Time now 2017-Nov-22 05:41 UTC.
Position N 27°59' W 015°21'.

Length 18 m.

Type: Sailing vessel. MMSI: 356858000.

Date/timePositionNaut miles runAvg speedWind from/ knotsBaromVisibWave heightAir tempDewpointWater temp
2017-Nov-19 13:45N 27°59' W 015°21'2 6.8
2017-Nov-19 13:25N 28°01' W 015°22'3 6.6
2017-Nov-19 12:55N 28°05' W 015°23'3 5.5
2017-Nov-19 12:24N 28°07' W 015°24'1 1.7
2017-Nov-19 12:00N 28°07' W 015°23'1 1.9
2017-Nov-19 11:30N 28°07' W 015°24'1 2.1
2017-Nov-19 10:56N 28°07' W 015°25'0 0.0
2017-Nov-19 10:29N 28°07' W 015°25'0 0.0
2017-Nov-19 09:59N 28°07' W 015°25'0 0.0
2017-Nov-19 09:29N 28°07' W 015°25'0 0.0
2017-Nov-19 08:47N 28°07' W 015°25'0 0.0
2017-Nov-19 08:29N 28°07' W 015°25'0 0.0
2017-Nov-19 07:59N 28°07' W 015°25'0 0.0
2017-Nov-19 07:29N 28°07' W 015°25'0 0.0
2017-Nov-19 06:59N 28°07' W 015°25'0 0.0
2017-Nov-19 06:29N 28°07' W 015°25'0 0.0
2017-Nov-19 05:59N 28°07' W 015°25'0 0.0
2017-Nov-19 05:29N 28°07' W 015°25'0 0.0
2017-Nov-19 04:59N 28°07' W 015°25'0 0.0
2017-Nov-19 04:20N 28°07' W 015°25'0 0.0
2017-Nov-19 03:50N 28°07' W 015°25'0 0.0
2017-Nov-19 03:20N 28°07' W 015°25'0 0.0
2017-Nov-19 02:53N 28°07' W 015°25'0 0.0
2017-Nov-19 02:23N 28°07' W 015°25'0 0.0
2017-Nov-19 01:53N 28°07' W 015°25'0 0.0
2017-Nov-19 01:23N 28°07' W 015°25'0 0.0
2017-Nov-19 00:50N 28°07' W 015°25'0 0.0
2017-Nov-19 00:26N 28°07' W 015°25'0 0.0
2017-Nov-18 23:56N 28°07' W 015°25'0 0.0
2017-Nov-18 23:26N 28°07' W 015°25'  
2017-Nov-16 15:10N 28°07' W 015°25'0 0.0
2017-Nov-16 14:55N 28°07' W 015°25'0 0.0
2017-Nov-16 14:25N 28°07' W 015°25'0 0.0
2017-Nov-16 13:55N 28°07' W 015°25'0 0.0
2017-Nov-16 13:25N 28°07' W 015°25'1 2.2
2017-Nov-16 12:58N 28°07' W 015°25'1 2.2
2017-Nov-16 12:29N 28°07' W 015°23'1 2.9
2017-Nov-16 12:00N 28°07' W 015°25'1 1.1
2017-Nov-16 11:22N 28°08' W 015°25'0 0.0
2017-Nov-16 10:52N 28°08' W 015°25'0 0.1
2017-Nov-16 10:26N 28°08' W 015°25'0 0.0
2017-Nov-15 18:26N 28°07' W 015°25'2 4.9
2017-Nov-15 18:00N 28°06' W 015°24'1 1.4
2017-Nov-15 17:30N 28°06' W 015°23'  
2017-Nov-10 12:17N 28°07' W 015°25'0 0.0
2017-Nov-10 11:47N 28°07' W 015°25'0 0.0
2017-Nov-10 11:29N 28°07' W 015°25'0 0.0
2017-Nov-10 10:50N 28°07' W 015°25'0 0.0
2017-Nov-10 09:20N 28°07' W 015°25'0 0.0
2017-Nov-10 09:00N 28°07' W 015°25'0 1.0
2017-Nov-10 08:29N 28°08' W 015°25'0 0.0
2017-Nov-10 07:59N 28°08' W 015°25'0 0.0
2017-Nov-10 06:29N 28°08' W 015°25'0 0.0
2017-Nov-10 05:59N 28°08' W 015°25'0 0.1
2017-Nov-10 05:30N 28°08' W 015°25'2 4.2
2017-Nov-10 05:00N 28°08' W 015°23'1 2.3
2017-Nov-10 04:29N 28°09' W 015°22'2 3.6
2017-Nov-10 03:59N 28°11' W 015°21'2 3.1
2017-Nov-10 03:29N 28°12' W 015°20'2 4.2
2017-Nov-10 02:58N 28°14' W 015°20'2 4.5
2017-Nov-10 02:28N 28°16' W 015°18'3 5.0
2017-Nov-10 01:57N 28°18' W 015°17'3 6.2
2017-Nov-10 01:27N 28°21' W 015°15'4 7.1
2017-Nov-10 00:57N 28°24' W 015°12'  
Track history (hours):
 
Tides and Currents Weather Stations Pressure Air Temp Water Temp Dewpoint Dewpoint Depression Visibility Wind Speed Wind Dir Waves Ship Positions

Naylamp I

Last reported at 2017-Nov-19 13:45 UTC. Time now 2017-Nov-22 05:41 UTC.
Position N 27°59' W 015°21'.

Length 18 m.

Type: Sailing vessel. MMSI: 356858000.

Date/timePositionNaut miles runAvg speedWind from/ knotsBaromVisibWave heightAir tempDewpointWater temp
2017-Nov-19 13:45N 27°59' W 015°21'2 6.8
2017-Nov-19 13:25N 28°01' W 015°22'3 6.6
2017-Nov-19 12:55N 28°05' W 015°23'3 5.5
2017-Nov-19 12:24N 28°07' W 015°24'1 1.7
2017-Nov-19 12:00N 28°07' W 015°23'1 1.9
2017-Nov-19 11:30N 28°07' W 015°24'1 2.1
2017-Nov-19 10:56N 28°07' W 015°25'0 0.0
2017-Nov-19 10:29N 28°07' W 015°25'0 0.0
2017-Nov-19 09:59N 28°07' W 015°25'0 0.0
2017-Nov-19 09:29N 28°07' W 015°25'0 0.0
2017-Nov-19 08:47N 28°07' W 015°25'0 0.0
2017-Nov-19 08:29N 28°07' W 015°25'0 0.0
2017-Nov-19 07:59N 28°07' W 015°25'0 0.0
2017-Nov-19 07:29N 28°07' W 015°25'0 0.0
2017-Nov-19 06:59N 28°07' W 015°25'0 0.0
2017-Nov-19 06:29N 28°07' W 015°25'0 0.0
2017-Nov-19 05:59N 28°07' W 015°25'0 0.0
2017-Nov-19 05:29N 28°07' W 015°25'0 0.0
2017-Nov-19 04:59N 28°07' W 015°25'0 0.0
2017-Nov-19 04:20N 28°07' W 015°25'0 0.0
2017-Nov-19 03:50N 28°07' W 015°25'0 0.0
2017-Nov-19 03:20N 28°07' W 015°25'0 0.0
2017-Nov-19 02:53N 28°07' W 015°25'0 0.0
2017-Nov-19 02:23N 28°07' W 015°25'0 0.0
2017-Nov-19 01:53N 28°07' W 015°25'0 0.0
2017-Nov-19 01:23N 28°07' W 015°25'0 0.0
2017-Nov-19 00:50N 28°07' W 015°25'0 0.0
2017-Nov-19 00:26N 28°07' W 015°25'0 0.0
2017-Nov-18 23:56N 28°07' W 015°25'0 0.0
2017-Nov-18 23:26N 28°07' W 015°25'  
2017-Nov-16 15:10N 28°07' W 015°25'0 0.0
2017-Nov-16 14:55N 28°07' W 015°25'0 0.0
2017-Nov-16 14:25N 28°07' W 015°25'0 0.0
2017-Nov-16 13:55N 28°07' W 015°25'0 0.0
2017-Nov-16 13:25N 28°07' W 015°25'1 2.2
2017-Nov-16 12:58N 28°07' W 015°25'1 2.2
2017-Nov-16 12:29N 28°07' W 015°23'1 2.9
2017-Nov-16 12:00N 28°07' W 015°25'1 1.1
2017-Nov-16 11:22N 28°08' W 015°25'0 0.0
2017-Nov-16 10:52N 28°08' W 015°25'0 0.1
2017-Nov-16 10:26N 28°08' W 015°25'0 0.0
2017-Nov-15 18:26N 28°07' W 015°25'2 4.9
2017-Nov-15 18:00N 28°06' W 015°24'1 1.4
2017-Nov-15 17:30N 28°06' W 015°23'  
2017-Nov-10 12:17N 28°07' W 015°25'0 0.0
2017-Nov-10 11:47N 28°07' W 015°25'0 0.0
2017-Nov-10 11:29N 28°07' W 015°25'0 0.0
2017-Nov-10 10:50N 28°07' W 015°25'0 0.0
2017-Nov-10 09:20N 28°07' W 015°25'0 0.0
2017-Nov-10 09:00N 28°07' W 015°25'0 1.0
2017-Nov-10 08:29N 28°08' W 015°25'0 0.0
2017-Nov-10 07:59N 28°08' W 015°25'0 0.0
2017-Nov-10 06:29N 28°08' W 015°25'0 0.0
2017-Nov-10 05:59N 28°08' W 015°25'0 0.1
2017-Nov-10 05:30N 28°08' W 015°25'2 4.2
2017-Nov-10 05:00N 28°08' W 015°23'1 2.3
2017-Nov-10 04:29N 28°09' W 015°22'2 3.6
2017-Nov-10 03:59N 28°11' W 015°21'2 3.1
2017-Nov-10 03:29N 28°12' W 015°20'2 4.2
2017-Nov-10 02:58N 28°14' W 015°20'2 4.5
2017-Nov-10 02:28N 28°16' W 015°18'3 5.0
2017-Nov-10 01:57N 28°18' W 015°17'3 6.2
2017-Nov-10 01:27N 28°21' W 015°15'4 7.1
2017-Nov-10 00:57N 28°24' W 015°12'  

Dump ship's entire track history